createdAt,value
2023-01-10T00:03:42.334Z,0.50
2023-01-10T00:08:45.921Z,0.70
2023-01-10T00:13:49.490Z,0.60
2023-01-10T00:18:54.786Z,0.77
2023-01-10T00:24:00.300Z,0.83
2023-01-10T00:29:04.034Z,0.67
2023-01-10T00:34:08.985Z,0.87
2023-01-10T00:39:13.897Z,0.90
2023-01-10T00:44:17.832Z,0.80
2023-01-10T00:49:22.880Z,0.80
2023-01-10T00:54:26.937Z,0.70
2023-01-10T00:59:30.542Z,0.80
2023-01-10T01:04:35.890Z,0.67
2023-01-10T01:09:59.435Z,0.77
2023-01-10T01:15:02.994Z,0.60
2023-01-10T01:20:09.945Z,0.50
2023-01-10T01:25:13.461Z,1.00
2023-01-10T01:30:17.279Z,0.50
2023-01-10T01:35:22.213Z,0.47
2023-01-10T01:40:25.742Z,0.60
2023-01-10T01:45:39.262Z,0.57
2023-01-10T01:50:49.490Z,0.60
2023-01-10T01:55:55.945Z,0.50
2023-01-10T02:00:59.676Z,0.60
2023-01-10T02:06:05.062Z,0.90
2023-01-10T02:11:11.463Z,0.63
2023-01-10T02:16:15.699Z,0.67
2023-01-10T02:21:44.640Z,0.70
2023-01-10T02:27:09.043Z,0.63
2023-01-10T02:32:45.731Z,1.20
2023-01-10T02:38:03.440Z,0.70
2023-01-10T02:43:11.598Z,0.77
2023-01-10T02:48:17.836Z,0.70
2023-01-10T02:53:26.134Z,0.53
2023-01-10T02:58:50.366Z,0.70
2023-01-10T03:04:04.921Z,0.60
2023-01-10T03:09:15.525Z,0.50
2023-01-10T03:14:23.027Z,0.50
2023-01-10T03:19:32.378Z,0.70
2023-01-10T03:24:41.235Z,0.50
2023-01-10T03:29:50.344Z,0.43
2023-01-10T03:34:56.117Z,0.60
2023-01-10T03:40:06.722Z,0.50
2023-01-10T03:45:16.169Z,0.83
2023-01-10T03:50:23.599Z,0.40
2023-01-10T03:55:29.720Z,0.50
2023-01-10T04:00:33.155Z,0.70
2023-01-10T04:05:38.170Z,0.53
2023-01-10T04:10:41.720Z,0.87
2023-01-10T04:15:45.147Z,0.90
2023-01-10T04:20:52.131Z,0.70
2023-01-10T04:25:55.701Z,0.50
2023-01-10T04:30:59.234Z,0.63
2023-01-10T04:36:04.152Z,0.50
2023-01-10T04:41:07.710Z,0.60
2023-01-10T04:46:11.281Z,0.80
2023-01-10T04:51:16.288Z,0.80
2023-01-10T04:56:22.676Z,1.03
2023-01-10T05:01:27.088Z,0.90
2023-01-10T05:06:32.211Z,0.67
2023-01-10T05:11:35.753Z,0.60
2023-01-10T05:16:39.365Z,0.60
2023-01-10T05:21:44.325Z,0.90
2023-01-10T05:26:48.020Z,0.90
2023-01-10T05:31:52.176Z,1.00
2023-01-10T05:36:57.083Z,1.03
2023-01-10T05:42:00.642Z,1.20
2023-01-10T05:47:04.148Z,0.80
2023-01-10T05:52:08.994Z,0.63
2023-01-10T05:57:12.531Z,0.70
2023-01-10T06:02:16.100Z,0.60
2023-01-10T06:07:20.943Z,0.73
2023-01-10T06:12:24.422Z,0.77
2023-01-10T06:17:29.299Z,0.80
2023-01-10T06:22:35.551Z,0.70
2023-01-10T06:27:41.072Z,0.70
2023-01-10T06:32:44.588Z,0.87
2023-01-10T06:37:49.460Z,1.23
2023-01-10T06:42:53.161Z,0.73
2023-01-10T06:47:57.049Z,0.60
2023-01-10T06:53:04.287Z,1.10
2023-01-10T06:58:07.907Z,0.83
2023-01-10T07:03:11.631Z,0.97
2023-01-10T07:08:16.721Z,1.00
2023-01-10T07:13:20.237Z,1.13
2023-01-10T07:18:23.895Z,0.90
2023-01-10T07:23:31.227Z,1.07
2023-01-10T07:28:35.256Z,0.90
2023-01-10T07:33:38.838Z,1.00
2023-01-10T07:38:43.938Z,0.67
2023-01-10T07:43:48.781Z,0.63
2023-01-10T07:48:52.309Z,0.90
2023-01-10T07:53:57.176Z,1.20
2023-01-10T07:59:01.270Z,0.83
2023-01-10T08:04:05.347Z,0.90
2023-01-10T08:09:10.420Z,1.00
2023-01-10T08:14:13.987Z,1.30
2023-01-10T08:19:18.437Z,0.70
2023-01-10T08:24:23.283Z,0.83
2023-01-10T08:29:27.390Z,0.90
2023-01-10T08:34:30.874Z,1.03
2023-01-10T08:39:36.117Z,1.17
2023-01-10T08:44:39.724Z,0.80
2023-01-10T08:49:43.242Z,0.93
2023-01-10T08:54:48.253Z,1.33
2023-01-10T08:59:52.125Z,0.50
2023-01-10T09:04:56.011Z,0.77
2023-01-10T09:10:01.160Z,0.83
2023-01-10T09:15:06.667Z,1.07
2023-01-10T09:20:12.924Z,0.70
2023-01-10T09:25:19.092Z,0.87
2023-01-10T09:30:22.855Z,1.00
2023-01-10T09:35:27.940Z,1.10
2023-01-10T09:40:54.228Z,0.43
2023-01-10T09:46:02.782Z,1.50
2023-01-10T09:51:20.965Z,1.30
2023-01-10T09:56:26.249Z,1.23
2023-01-10T10:01:37.148Z,1.40
2023-01-10T10:06:40.668Z,1.53
2023-01-10T10:12:11.835Z,1.77
2023-01-10T10:17:28.942Z,1.40
2023-01-10T10:22:42.446Z,1.07
2023-01-10T10:28:02.995Z,1.57
2023-01-10T10:33:21.998Z,1.40
2023-01-10T10:38:30.719Z,1.37
2023-01-10T10:43:38.664Z,1.57
2023-01-10T10:48:47.926Z,1.30
2023-01-10T10:53:51.574Z,0.90
2023-01-10T10:58:59.610Z,1.70
2023-01-10T11:04:07.730Z,1.90
2023-01-10T11:09:12.534Z,1.40
2023-01-10T11:14:37.471Z,2.13
2023-01-10T11:19:41.131Z,1.50
2023-01-10T11:24:53.635Z,1.43
2023-01-10T11:30:01.225Z,1.13
2023-01-10T11:35:08.742Z,1.33
2023-01-10T11:40:20.928Z,1.23
2023-01-10T11:45:29.168Z,1.07
2023-01-10T11:50:36.565Z,1.07
2023-01-10T11:55:40.171Z,1.63
2023-01-10T12:00:47.117Z,1.60
2023-01-10T12:05:53.816Z,1.80
2023-01-10T12:11:01.768Z,1.47
2023-01-10T12:16:22.326Z,1.70
2023-01-10T12:21:31.768Z,1.83
2023-01-10T12:26:36.444Z,1.53
2023-01-10T12:31:42.339Z,1.30
2023-01-10T12:36:55.894Z,1.10
2023-01-10T12:42:29.296Z,1.13
2023-01-10T12:47:42.543Z,1.30
2023-01-10T12:52:49.941Z,1.57
2023-01-10T12:57:57.253Z,1.30
2023-01-10T13:03:07.412Z,0.90
2023-01-10T13:08:15.041Z,1.50
2023-01-10T13:13:27.878Z,1.50
2023-01-10T13:18:34.742Z,1.23
2023-01-10T13:23:46.748Z,1.47
2023-01-10T13:28:57.375Z,1.77
2023-01-10T13:34:07.505Z,2.07
2023-01-10T13:39:23.581Z,1.60
2023-01-10T13:44:27.144Z,1.63
2023-01-10T13:49:50.017Z,1.30
2023-01-10T13:54:58.273Z,1.43
2023-01-10T14:00:32.199Z,1.63
2023-01-10T14:05:37.263Z,1.87
2023-01-10T14:10:42.086Z,1.70
2023-01-10T14:15:47.566Z,1.90
2023-01-10T14:21:00.235Z,2.20
2023-01-10T14:26:05.046Z,1.80
2023-01-10T14:31:14.777Z,1.47
2023-01-10T14:36:24.573Z,1.60
2023-01-10T14:41:35.897Z,1.50
2023-01-10T14:46:47.054Z,2.10
2023-01-10T14:51:52.608Z,1.27
2023-01-10T14:56:57.426Z,2.13
2023-01-10T15:02:04.285Z,2.00
2023-01-10T15:07:16.564Z,1.70
2023-01-10T15:12:23.031Z,1.73
2023-01-10T15:17:27.557Z,2.17
2023-01-10T15:22:34.617Z,1.60
2023-01-10T15:27:46.234Z,2.00
2023-01-10T15:32:51.331Z,2.30
2023-01-10T15:37:58.843Z,1.77
2023-01-10T15:43:13.528Z,1.90
2023-01-10T15:48:31.365Z,1.83
2023-01-10T15:54:03.086Z,1.90
2023-01-10T15:59:21.402Z,2.10
2023-01-10T16:04:25.152Z,1.80
2023-01-10T16:09:30.277Z,1.87
2023-01-10T16:14:34.561Z,1.73
2023-01-10T16:19:38.546Z,1.40
2023-01-10T16:24:44.165Z,2.37
2023-01-10T16:29:47.684Z,2.10
2023-01-10T16:34:51.235Z,2.63
2023-01-10T16:39:57.608Z,2.30
2023-01-10T16:45:01.174Z,2.67
2023-01-10T16:50:05.108Z,2.20
2023-01-10T16:55:16.740Z,2.33
2023-01-10T17:00:21.183Z,2.17
2023-01-10T17:05:25.032Z,2.10
2023-01-10T17:10:30.848Z,2.37
2023-01-10T17:15:36.462Z,2.00
2023-01-10T17:20:39.968Z,2.03
2023-01-10T17:25:47.098Z,1.60
2023-01-10T17:30:50.711Z,1.50
2023-01-10T17:35:56.244Z,2.23
2023-01-10T17:41:03.010Z,1.97
2023-01-10T17:46:07.067Z,1.40
2023-01-10T17:51:13.036Z,1.67
2023-01-10T17:56:18.328Z,1.60
2023-01-10T18:01:25.421Z,1.70
2023-01-10T18:06:29.195Z,2.00
2023-01-10T18:11:34.107Z,1.90
2023-01-10T18:16:37.742Z,1.60
2023-01-10T18:21:41.424Z,1.90
2023-01-10T18:26:47.580Z,1.87
2023-01-10T18:31:51.552Z,1.40
2023-01-10T18:36:55.063Z,2.07
2023-01-10T18:41:59.988Z,1.63
2023-01-10T18:47:03.671Z,1.50
2023-01-10T18:52:07.519Z,1.60
2023-01-10T18:57:12.436Z,1.43
2023-01-10T19:02:16.568Z,2.20
2023-01-10T19:07:20.179Z,1.67
2023-01-10T19:12:25.212Z,1.63
2023-01-10T19:17:30.365Z,1.90
2023-01-10T19:22:34.020Z,1.47
2023-01-10T19:27:38.979Z,1.33
2023-01-10T19:32:42.650Z,1.60
2023-01-10T19:37:46.204Z,1.60
2023-01-10T19:42:51.321Z,1.83
2023-01-10T19:47:54.949Z,1.20
2023-01-10T19:52:58.497Z,1.60
2023-01-10T19:58:03.500Z,1.20
2023-01-10T20:03:07.822Z,1.50
2023-01-10T20:08:11.475Z,1.10
2023-01-10T20:13:16.587Z,1.40
2023-01-10T20:18:20.136Z,1.43
2023-01-10T20:23:24.421Z,1.03
2023-01-10T20:28:29.941Z,1.30
2023-01-10T20:33:34.528Z,1.30
2023-01-10T20:38:39.107Z,0.87
2023-01-10T20:43:44.676Z,1.27
2023-01-10T20:48:49.295Z,1.00
2023-01-10T20:53:52.857Z,0.97
2023-01-10T20:58:58.668Z,1.40
2023-01-10T21:04:03.394Z,1.70
2023-01-10T21:09:07.522Z,1.00
2023-01-10T21:14:13.466Z,1.00
2023-01-10T21:19:17.300Z,2.47
2023-01-10T21:24:22.855Z,1.40
2023-01-10T21:29:27.824Z,0.90
2023-01-10T21:34:31.381Z,0.90
2023-01-10T21:39:34.940Z,0.67
2023-01-10T21:44:39.829Z,1.13
2023-01-10T21:49:43.417Z,0.90
2023-01-10T21:54:47.060Z,0.70
2023-01-10T21:59:52.426Z,1.10
2023-01-10T22:04:56.655Z,1.87
2023-01-10T22:10:00.218Z,0.80
2023-01-10T22:15:05.951Z,0.60
2023-01-10T22:20:10.695Z,0.60
2023-01-10T22:25:14.284Z,0.57
2023-01-10T22:30:19.578Z,0.57
2023-01-10T22:35:26.027Z,0.50
2023-01-10T22:40:29.642Z,0.40
2023-01-10T22:45:34.653Z,0.53
2023-01-10T22:50:39.505Z,0.47
2023-01-10T22:55:43.067Z,0.40
2023-01-10T23:00:50.602Z,0.50
2023-01-10T23:05:56.539Z,0.40
2023-01-10T23:11:00.268Z,0.40
2023-01-10T23:16:07.487Z,0.40
2023-01-10T23:21:11.363Z,0.50
2023-01-10T23:26:15.327Z,0.40
2023-01-10T23:31:21.909Z,0.40
2023-01-10T23:36:25.595Z,0.30
2023-01-10T23:41:29.458Z,0.37
2023-01-10T23:46:34.458Z,0.47
2023-01-10T23:51:38.459Z,0.33
2023-01-10T23:56:42.058Z,0.27
